Time;durP1;ratioP1;P1;durP2;ratioP2;P2;SDS_P1;SDS_P2;PMS_P1;PMS_P2;Temp;Humidity;BMP_temperature;BMP_pressure;BME280_temperature;BME280_humidity;BME280_pressure;Samples;Min_cycle;Max_cycle;Signal;HPM_P1;HPM_P2
2021/03/10 00:01:46;;;;;;;57.10;31.40;;;;;;;1.30;81.66;95669.69;5072903;28;20650;-75
2021/03/10 00:04:12;;;;;;;55.00;30.33;;;;;;;1.28;81.99;95674.88;5073865;28;20181;-75
2021/03/10 00:06:37;;;;;;;55.77;30.33;;;;;;;1.27;82.11;95668.13;5071243;28;20220;-76
2021/03/10 00:09:02;;;;;;;52.37;30.17;;;;;;;1.29;81.85;95671.41;5069727;28;20182;-75
2021/03/10 00:11:28;;;;;;;56.03;31.10;;;;;;;1.30;82.02;95677.34;5086925;28;20243;-76
2021/03/10 00:13:53;;;;;;;52.50;29.37;;;;;;;1.29;81.96;95681.66;5085200;28;20193;-75
2021/03/10 00:16:18;;;;;;;56.83;31.60;;;;;;;1.31;81.90;95682.38;5069914;28;20181;-76
2021/03/10 00:18:43;;;;;;;53.97;29.83;;;;;;;1.29;82.53;95676.53;5071389;28;20637;-76
2021/03/10 00:21:09;;;;;;;51.97;31.10;;;;;;;1.31;81.92;95679.81;5084917;28;20235;-76
2021/03/10 00:23:34;;;;;;;61.83;31.30;;;;;;;1.30;82.05;95682.47;5071170;28;20184;-76
2021/03/10 00:26:00;;;;;;;55.23;31.60;;;;;;;1.35;81.69;95688.97;5069658;28;20304;-76
2021/03/10 00:28:25;;;;;;;56.63;30.80;;;;;;;1.28;82.12;95680.00;5069943;28;20632;-75
2021/03/10 00:30:50;;;;;;;58.37;31.97;;;;;;;1.34;81.98;95696.75;5069432;28;20204;-76
2021/03/10 00:33:16;;;;;;;58.37;31.40;;;;;;;1.34;81.76;95695.00;5069776;28;20184;-75
2021/03/10 00:35:41;;;;;;;52.50;29.83;;;;;;;1.36;81.78;95693.19;5070769;28;20538;-75
2021/03/10 00:38:06;;;;;;;51.07;29.90;;;;;;;1.38;81.54;95696.47;5069856;28;20182;-76
2021/03/10 00:40:32;;;;;;;58.63;30.53;;;;;;;1.37;81.64;95699.13;5069742;28;20208;-76
2021/03/10 00:42:57;;;;;;;54.53;30.00;;;;;;;1.37;82.06;95699.13;5069332;28;20189;-76
2021/03/10 00:45:22;;;;;;;55.03;31.40;;;;;;;1.38;82.10;95704.13;5069630;28;20205;-75
2021/03/10 00:47:47;;;;;;;60.13;31.73;;;;;;;1.41;81.66;95704.00;5071084;28;20553;-76
2021/03/10 00:50:17;;;;;;;56.13;31.77;;;;;;;1.43;81.38;95714.13;5069725;28;20315;-76
2021/03/10 00:52:42;;;;;;;53.97;30.63;;;;;;;1.45;81.42;95716.59;5054543;28;20581;-76
2021/03/10 00:55:08;;;;;;;57.53;31.80;;;;;;;1.44;81.76;95710.66;5056370;28;20273;-76
2021/03/10 00:57:34;;;;;;;55.47;30.17;;;;;;;1.49;81.54;95711.19;5074403;28;20185;-76
2021/03/10 00:59:59;;;;;;;52.57;30.50;;;;;;;1.48;81.66;95711.28;5073242;28;20173;-76
2021/03/10 01:02:24;;;;;;;53.10;30.87;;;;;;;1.47;81.83;95709.66;5070338;28;20231;-76
2021/03/10 01:04:50;;;;;;;56.90;32.43;;;;;;;1.45;81.81;95707.19;5053026;28;20209;-76
2021/03/10 01:07:15;;;;;;;56.30;31.63;;;;;;;1.44;81.59;95702.16;5053151;28;20189;-76
2021/03/10 01:09:40;;;;;;;58.63;30.33;;;;;;;1.50;81.62;95706.91;5054400;28;20177;-76
2021/03/10 01:12:06;;;;;;;55.33;30.93;;;;;;;1.45;81.91;95706.34;5054080;28;20694;-76
2021/03/10 01:14:31;;;;;;;56.43;31.87;;;;;;;1.41;81.82;95700.56;5053805;28;20734;-76
2021/03/10 01:16:57;;;;;;;55.43;30.50;;;;;;;1.45;81.61;95701.25;5054220;28;20181;-76
2021/03/10 01:19:22;;;;;;;55.03;31.93;;;;;;;1.51;81.31;95698.34;5036185;28;20182;-76
2021/03/10 01:21:47;;;;;;;56.30;32.70;;;;;;;1.48;81.43;95695.94;5053751;28;20209;-76
2021/03/10 01:24:13;;;;;;;56.57;31.37;;;;;;;1.52;81.49;95694.84;5052834;28;20174;-76
2021/03/10 01:26:38;;;;;;;61.23;32.87;;;;;;;1.50;81.60;95701.78;5052806;28;20645;-76
2021/03/10 01:29:03;;;;;;;56.50;32.00;;;;;;;1.45;81.65;95699.50;5052806;28;20227;-76
2021/03/10 01:31:29;;;;;;;57.70;31.13;;;;;;;1.47;81.94;95697.66;5043966;28;20212;-76
2021/03/10 01:33:54;;;;;;;55.10;31.17;;;;;;;1.46;81.83;95696.03;5073570;28;20188;-76
2021/03/10 01:36:19;;;;;;;56.37;31.90;;;;;;;1.45;81.71;95691.81;5073628;28;20971;-76
2021/03/10 01:38:45;;;;;;;51.70;30.67;;;;;;;1.43;81.80;95696.22;5072622;28;20177;-76
2021/03/10 01:41:12;;;;;;;51.50;30.17;;;;;;;1.45;81.37;95696.94;5071757;28;20216;-76
2021/03/10 01:43:37;;;;;;;48.23;29.13;;;;;;;1.46;81.41;95695.22;5068959;28;20182;-76
2021/03/10 01:46:03;;;;;;;57.67;32.37;;;;;;;1.46;81.54;95700.31;5053469;28;20311;-76
2021/03/10 01:48:28;;;;;;;51.77;30.17;;;;;;;1.51;81.11;95695.78;5053561;28;20182;-76
2021/03/10 01:50:53;;;;;;;51.87;29.90;;;;;;;1.47;81.24;95695.13;5052191;28;20194;-76
2021/03/10 01:53:19;;;;;;;54.33;30.83;;;;;;;1.51;81.20;95690.66;5036916;28;20283;-76
2021/03/10 01:55:47;;;;;;;49.43;28.70;;;;;;;1.48;80.73;95693.38;5052012;28;20184;-76
2021/03/10 01:58:12;;;;;;;54.30;30.80;;;;;;;1.46;80.88;95683.22;5035382;28;20190;-76
2021/03/10 02:00:38;;;;;;;55.37;30.40;;;;;;;1.46;81.09;95683.22;5053259;28;20205;-76
2021/03/10 02:03:04;;;;;;;53.73;29.60;;;;;;;1.45;81.08;95683.31;5057318;28;20185;-76
2021/03/10 02:05:30;;;;;;;58.17;32.03;;;;;;;1.44;80.99;95686.81;5072554;28;20766;-76
2021/03/10 02:08:07;;;;;;;51.83;29.53;;;;;;;1.47;80.97;95684.06;5072274;28;20177;-76
2021/03/10 02:10:44;;;;;;;55.20;28.73;;;;;;;1.57;80.28;95682.59;5071683;28;20200;-76
2021/03/10 02:13:19;;;;;;;53.03;30.13;;;;;;;1.52;80.52;95671.81;5072298;28;20644;-76
2021/03/10 02:16:09;;;;;;;51.93;29.97;;;;;;;1.51;80.51;95676.13;5051693;28;20191;-76
2021/03/10 02:18:46;;;;;;;49.80;28.73;;;;;;;1.51;80.42;95676.13;5053071;28;20184;-76
2021/03/10 02:21:24;;;;;;;51.53;28.93;;;;;;;1.46;80.73;95673.00;5051692;28;20233;-76
2021/03/10 02:23:55;;;;;;;53.50;29.63;;;;;;;1.47;80.48;95669.53;5051886;28;20264;-76
2021/03/10 02:26:33;;;;;;;52.20;30.03;;;;;;;1.46;80.75;95667.06;5054969;28;20185;-75
2021/03/10 02:29:04;;;;;;;55.33;30.00;;;;;;;1.45;80.97;95673.09;5072809;28;20661;-76
2021/03/10 02:31:32;;;;;;;57.03;30.57;;;;;;;1.48;80.96;95686.53;5071382;28;20694;-76
2021/03/10 02:33:59;;;;;;;51.57;28.80;;;;;;;1.48;80.78;95678.03;5071270;28;20185;-76
2021/03/10 02:36:25;;;;;;;53.43;29.80;;;;;;;1.47;80.93;95682.31;5055729;28;20182;-76
2021/03/10 02:38:52;;;;;;;53.90;30.63;;;;;;;1.50;80.96;95686.44;5034970;28;20193;-76
2021/03/10 02:41:17;;;;;;;55.33;30.07;;;;;;;1.51;80.69;95685.53;5035246;28;20206;-75
2021/03/10 02:43:43;;;;;;;52.77;30.93;;;;;;;1.54;81.00;95682.78;5052429;28;20240;-76
2021/03/10 02:46:09;;;;;;;53.73;29.13;;;;;;;1.51;80.79;95690.66;5050805;28;20683;-76
2021/03/10 02:48:36;;;;;;;55.87;30.37;;;;;;;1.47;80.75;95686.63;5051242;28;20220;-75
2021/03/10 02:51:01;;;;;;;52.33;30.57;;;;;;;1.51;80.87;95690.66;5051199;28;20194;-76
2021/03/10 02:53:27;;;;;;;52.53;29.13;;;;;;;1.48;80.92;95688.25;5034698;28;20716;-76
2021/03/10 02:55:52;;;;;;;55.20;31.47;;;;;;;1.46;80.85;95680.66;5052443;28;20181;-75
2021/03/10 02:58:18;;;;;;;54.27;30.73;;;;;;;1.45;80.57;95688.44;5071253;28;20216;-76
2021/03/10 03:00:43;;;;;;;51.40;29.63;;;;;;;1.46;80.82;95697.75;5070753;28;20209;-76
2021/03/10 03:03:09;;;;;;;53.23;29.93;;;;;;;1.43;80.83;95701.34;5070831;28;20189;-76
2021/03/10 03:05:34;;;;;;;53.17;31.37;;;;;;;1.41;81.13;95698.00;5070762;28;20174;-76
2021/03/10 03:08:01;;;;;;;46.60;28.77;;;;;;;1.43;80.94;95696.22;5070394;28;20385;-76
2021/03/10 03:10:29;;;;;;;49.40;30.33;;;;;;;1.37;80.91;95706.78;5070842;28;20208;-76
2021/03/10 03:12:55;;;;;;;44.23;27.33;;;;;;;1.38;80.89;95716.94;5070753;28;20204;-76
2021/03/10 03:15:22;;;;;;;52.53;30.80;;;;;;;1.44;80.88;95725.19;5070376;28;20185;-76
2021/03/10 03:17:47;;;;;;;53.50;30.30;;;;;;;1.49;81.05;95723.16;5066499;28;20186;-76
2021/03/10 03:20:14;;;;;;;48.80;29.43;;;;;;;1.46;80.74;95716.50;5033867;28;20255;-76
2021/03/10 03:22:44;;;;;;;54.70;29.87;;;;;;;1.46;80.84;95710.56;5051901;28;20266;-76
2021/03/10 03:25:21;;;;;;;50.90;30.20;;;;;;;1.41;81.23;95710.81;5050455;28;20248;-76
2021/03/10 03:27:49;;;;;;;54.40;30.93;;;;;;;1.42;80.91;95708.19;5050547;28;20174;-76
2021/03/10 03:30:15;;;;;;;51.40;30.73;;;;;;;1.39;80.99;95708.34;5051590;28;20205;-76
2021/03/10 03:32:42;;;;;;;55.57;32.47;;;;;;;1.40;80.97;95714.28;5050315;28;20206;-76
2021/03/10 03:35:08;;;;;;;56.13;31.10;;;;;;;1.35;81.13;95709.44;5050286;28;20186;-76
2021/03/10 03:37:33;;;;;;;54.40;31.17;;;;;;;1.34;81.21;95714.66;5050357;28;20195;-76
2021/03/10 03:39:59;;;;;;;53.03;31.10;;;;;;;1.29;81.30;95717.47;5051217;28;20260;-76
2021/03/10 03:42:24;;;;;;;52.17;30.63;;;;;;;1.30;81.36;95720.84;5050445;28;20184;-76
2021/03/10 03:44:49;;;;;;;47.43;29.30;;;;;;;1.26;81.17;95714.25;5050159;28;20197;-76
2021/03/10 03:47:16;;;;;;;53.77;30.93;;;;;;;1.19;81.68;95711.22;5050453;28;20261;-76
2021/03/10 03:49:49;;;;;;;53.07;31.57;;;;;;;1.21;81.66;95717.06;5053809;28;20178;-75
2021/03/10 03:52:14;;;;;;;57.37;31.73;;;;;;;1.19;81.82;95725.75;5070244;28;20188;-76
2021/03/10 03:54:40;;;;;;;53.77;31.97;;;;;;;1.20;82.20;95725.66;5069956;28;20271;-76
2021/03/10 03:57:06;;;;;;;54.43;30.90;;;;;;;1.19;81.72;95724.00;5070232;28;20233;-76
2021/03/10 03:59:32;;;;;;;55.67;31.20;;;;;;;1.19;81.61;95713.78;5071646;28;20238;-75
2021/03/10 04:01:57;;;;;;;56.93;32.90;;;;;;;1.19;81.93;95713.78;5054597;28;20216;-76
2021/03/10 04:04:22;;;;;;;52.67;29.40;;;;;;;1.20;82.09;95710.31;5051151;28;20190;-76
2021/03/10 04:06:48;;;;;;;55.90;30.03;;;;;;;1.24;81.90;95709.25;5033533;28;20188;-76
2021/03/10 04:09:13;;;;;;;50.30;29.17;;;;;;;1.21;81.79;95711.94;5033334;28;20268;-76
2021/03/10 04:11:44;;;;;;;52.33;30.83;;;;;;;1.21;81.97;95717.06;5051102;28;20214;-76
2021/03/10 04:14:09;;;;;;;50.67;29.63;;;;;;;1.21;81.98;95722.19;5050160;28;20182;-76
2021/03/10 04:16:35;;;;;;;54.03;31.00;;;;;;;1.24;81.95;95724.59;5051106;28;20178;-76
2021/03/10 04:19:00;;;;;;;52.90;31.60;;;;;;;1.27;82.04;95724.41;5049988;28;20189;-76
2021/03/10 04:21:26;;;;;;;54.10;29.47;;;;;;;1.25;81.99;95726.22;5050172;28;20779;-75
2021/03/10 04:23:51;;;;;;;49.03;28.77;;;;;;;1.25;82.11;95723.69;5070095;28;20223;-76
2021/03/10 04:26:16;;;;;;;51.43;30.03;;;;;;;1.27;81.57;95724.41;5071154;28;20181;-76
2021/03/10 04:28:41;;;;;;;55.43;30.70;;;;;;;1.28;81.93;95735.47;5073408;28;20612;-76
2021/03/10 04:31:07;;;;;;;49.97;30.23;;;;;;;1.31;81.94;95730.97;5073851;28;20200;-76
2021/03/10 04:33:32;;;;;;;52.93;30.70;;;;;;;1.30;81.69;95743.88;5073203;28;20239;-76
2021/03/10 04:35:57;;;;;;;46.57;28.13;;;;;;;1.31;81.87;95740.41;5090044;28;20189;-76
2021/03/10 04:38:23;;;;;;;52.83;28.30;;;;;;;1.31;81.88;95745.50;5073777;28;20204;-75
2021/03/10 04:40:48;;;;;;;47.00;26.30;;;;;;;1.32;81.70;95752.28;5073668;28;20205;-76
2021/03/10 04:43:13;;;;;;;51.63;29.17;;;;;;;1.33;81.89;95754.78;5072877;28;20212;-76
2021/03/10 04:45:38;;;;;;;49.73;27.90;;;;;;;1.33;81.64;95744.53;5074649;28;20169;-76
2021/03/10 04:48:04;;;;;;;47.33;28.90;;;;;;;1.33;81.55;95749.66;5073564;28;20215;-76
2021/03/10 04:50:29;;;;;;;52.07;29.47;;;;;;;1.35;81.57;95754.69;5074481;28;20322;-75
2021/03/10 04:52:55;;;;;;;54.97;32.40;;;;;;;1.34;81.80;95755.59;5074926;28;20670;-76
2021/03/10 04:55:20;;;;;;;49.57;29.83;;;;;;;1.34;81.74;95755.59;5072957;28;20189;-76
2021/03/10 04:57:45;;;;;;;50.43;30.40;;;;;;;1.32;81.88;95752.28;5073413;28;20719;-76
2021/03/10 05:00:11;;;;;;;47.03;29.23;;;;;;;1.30;81.60;95752.38;5073257;28;20197;-76
2021/03/10 05:02:37;;;;;;;51.77;29.70;;;;;;;1.29;81.59;95752.47;5073249;28;20260;-76
2021/03/10 05:05:04;;;;;;;50.43;30.30;;;;;;;1.28;81.79;95756.75;5065623;28;20189;-76
2021/03/10 05:07:29;;;;;;;49.73;29.70;;;;;;;1.25;81.99;95753.56;5053275;28;20205;-76
2021/03/10 05:09:54;;;;;;;51.37;30.87;;;;;;;1.25;81.70;95756.13;5054386;28;20583;-76
2021/03/10 05:12:20;;;;;;;52.17;30.03;;;;;;;1.32;81.14;95760.78;5053033;28;20186;-76
2021/03/10 05:14:45;;;;;;;52.60;28.97;;;;;;;1.30;81.26;95757.47;5052992;28;20189;-76
2021/03/10 05:17:10;;;;;;;49.37;29.33;;;;;;;1.29;81.49;95758.41;5054357;28;20178;-76
2021/03/10 05:19:36;;;;;;;48.90;29.97;;;;;;;1.26;81.67;95761.13;5055442;28;20235;-75
2021/03/10 05:22:01;;;;;;;49.63;29.33;;;;;;;1.23;81.75;95756.19;5055457;28;20206;-75
2021/03/10 05:24:26;;;;;;;53.93;33.20;;;;;;;1.23;81.53;95758.72;5038563;28;20178;-75
2021/03/10 05:26:52;;;;;;;53.43;32.20;;;;;;;1.20;81.70;95753.78;5067312;28;20181;-75
2021/03/10 05:29:17;;;;;;;55.33;31.53;;;;;;;1.22;81.59;95759.66;5074944;28;20180;-75
2021/03/10 05:31:42;;;;;;;61.13;32.73;;;;;;;1.20;81.54;95769.16;5076464;28;20193;-75
2021/03/10 05:34:08;;;;;;;56.97;32.73;;;;;;;1.14;82.00;95759.25;5075909;28;20264;-75
2021/03/10 05:36:33;;;;;;;58.57;32.70;;;;;;;1.15;81.80;95763.47;5073951;28;20633;-75
2021/03/10 05:38:59;;;;;;;52.40;31.80;;;;;;;1.16;82.00;95759.19;5073446;28;20216;-75
2021/03/10 05:41:24;;;;;;;49.17;31.10;;;;;;;1.16;82.25;95756.63;5075155;28;20737;-75
2021/03/10 05:43:50;;;;;;;53.73;31.50;;;;;;;1.17;81.78;95760.84;5073090;28;20185;-76
2021/03/10 05:46:15;;;;;;;54.47;33.07;;;;;;;1.14;81.87;95764.38;5072138;28;20263;-76
2021/03/10 05:48:40;;;;;;;57.73;33.10;;;;;;;1.14;81.86;95766.91;5072034;28;20200;-76
2021/03/10 05:51:06;;;;;;;55.80;31.70;;;;;;;1.16;82.17;95762.56;5073568;28;20193;-76
2021/03/10 05:53:41;;;;;;;54.27;32.53;;;;;;;1.16;82.03;95761.75;5072495;28;20177;-76
2021/03/10 05:56:07;;;;;;;58.50;33.20;;;;;;;1.15;82.08;95766.03;5072091;28;20214;-76
2021/03/10 05:58:32;;;;;;;61.20;32.80;;;;;;;1.15;82.19;95776.28;5064378;28;20797;-76
2021/03/10 06:00:58;;;;;;;57.57;33.90;;;;;;;1.19;82.14;95774.34;5051957;28;20693;-75
2021/03/10 06:03:23;;;;;;;57.60;32.63;;;;;;;1.17;81.94;95774.44;5052177;28;20529;-75
2021/03/10 06:06:01;;;;;;;62.47;33.57;;;;;;;1.22;81.87;95780.09;5051855;28;20556;-76
2021/03/10 06:08:30;;;;;;;60.73;35.70;;;;;;;1.20;81.87;95774.25;5058429;28;20184;-75
2021/03/10 06:10:56;;;;;;;58.17;32.80;;;;;;;1.23;81.86;95774.09;5069380;28;20742;-75
2021/03/10 06:13:31;;;;;;;58.77;33.27;;;;;;;1.26;81.96;95776.50;5071849;28;20214;-76
2021/03/10 06:15:59;;;;;;;52.13;31.80;;;;;;;1.29;81.84;95783.97;5072408;28;20179;-75
2021/03/10 06:18:42;;;;;;;54.57;32.20;;;;;;;1.34;82.00;95792.25;5072503;28;20256;-75
2021/03/10 06:21:09;;;;;;;55.77;31.60;;;;;;;1.38;81.84;95791.16;5062385;28;20205;-76
2021/03/10 06:23:37;;;;;;;51.27;31.13;;;;;;;1.45;81.35;95791.63;5064330;28;20173;-75
2021/03/10 06:26:19;;;;;;;53.10;31.77;;;;;;;1.49;81.54;95794.84;5062881;28;20192;-76
2021/03/10 06:28:44;;;;;;;54.50;31.80;;;;;;;1.51;81.11;95798.16;5062007;28;20182;-77
2021/03/10 06:31:21;;;;;;;53.13;31.60;;;;;;;1.56;81.19;95802.06;5063018;28;20216;-75
2021/03/10 06:34:05;;;;;;;54.07;33.07;;;;;;;1.54;81.20;95795.41;5071816;28;20561;-76
2021/03/10 06:36:34;;;;;;;54.73;30.77;;;;;;;1.56;80.93;95796.13;5072877;28;20173;-76
2021/03/10 06:39:00;;;;;;;54.73;32.67;;;;;;;1.55;81.12;95790.19;5071812;28;20635;-75
2021/03/10 06:41:31;;;;;;;50.73;31.33;;;;;;;1.62;81.06;95803.47;5061568;28;20206;-76
2021/03/10 06:43:56;;;;;;;55.33;30.03;;;;;;;1.61;80.71;95792.41;5062897;28;20181;-75
2021/03/10 06:46:22;;;;;;;51.87;32.40;;;;;;;1.64;80.73;95799.09;5065304;28;20173;-75
2021/03/10 06:48:55;;;;;;;53.07;31.53;;;;;;;1.70;80.71;95803.88;5071121;28;20264;-74
2021/03/10 06:51:21;;;;;;;50.43;31.43;;;;;;;1.73;80.49;95803.69;5069503;28;20220;-76
2021/03/10 06:53:47;;;;;;;53.07;31.27;;;;;;;1.74;80.62;95804.50;5051395;28;20344;-76
2021/03/10 06:56:27;;;;;;;55.20;31.83;;;;;;;1.76;80.43;95813.75;5040983;28;20178;-77
2021/03/10 06:58:56;;;;;;;50.10;30.90;;;;;;;1.76;80.21;95818.03;5051454;28;20552;-77
2021/03/10 07:01:24;;;;;;;50.80;30.23;;;;;;;1.75;80.56;95822.34;5074329;28;20677;-75
2021/03/10 07:03:51;;;;;;;51.07;30.53;;;;;;;1.81;80.34;95822.00;5064480;28;20227;-76
2021/03/10 07:06:17;;;;;;;53.93;32.03;;;;;;;1.84;80.43;95821.81;5062769;28;20185;-75
2021/03/10 07:08:43;;;;;;;57.27;32.93;;;;;;;1.93;80.18;95820.47;5048492;28;20190;-75
2021/03/10 07:11:09;;;;;;;57.73;33.30;;;;;;;1.95;80.24;95810.97;5060359;28;20211;-74
2021/03/10 07:13:34;;;;;;;52.07;31.00;;;;;;;2.03;79.41;95820.75;5062429;28;20239;-75
2021/03/10 07:16:00;;;;;;;57.63;34.50;;;;;;;2.14;80.00;95833.78;5069321;28;20185;-75
2021/03/10 07:18:27;;;;;;;50.97;31.53;;;;;;;2.23;79.33;95828.13;5063546;28;20181;-77
2021/03/10 07:20:54;;;;;;;49.70;30.23;;;;;;;2.40;79.40;95840.75;5061311;28;20197;-74
2021/03/10 07:23:20;;;;;;;50.37;29.63;;;;;;;2.35;78.74;95837.63;5061858;28;20188;-75
2021/03/10 07:25:45;;;;;;;55.43;32.90;;;;;;;2.50;78.26;95847.00;5065700;28;20241;-74
2021/03/10 07:28:17;;;;;;;54.57;32.87;;;;;;;2.53;78.15;95845.97;5067611;28;20216;-74
2021/03/10 07:30:44;;;;;;;47.90;27.87;;;;;;;2.58;77.85;95851.66;5061920;28;20193;-75
2021/03/10 07:33:12;;;;;;;48.87;29.03;;;;;;;2.64;78.05;95858.16;5059233;28;20272;-74
2021/03/10 07:35:53;;;;;;;48.73;28.77;;;;;;;2.68;77.90;95860.44;5054517;28;20224;-74
2021/03/10 07:38:20;;;;;;;50.40;28.70;;;;;;;2.74;77.87;95856.66;5064085;28;20180;-76
2021/03/10 07:41:00;;;;;;;49.80;28.13;;;;;;;2.70;77.77;95868.03;5056633;28;20205;-75
2021/03/10 07:43:40;;;;;;;46.13;27.73;;;;;;;2.72;77.71;95873.91;5067717;28;20645;-75
2021/03/10 07:46:18;;;;;;;47.23;29.27;;;;;;;2.75;77.42;95882.25;5059588;28;20330;-75
2021/03/10 07:48:43;;;;;;;45.50;27.37;;;;;;;2.80;77.53;95885.34;5056002;28;20265;-75
2021/03/10 07:51:09;;;;;;;51.23;27.03;;;;;;;2.85;77.47;95882.53;5062042;28;21292;-75
2021/03/10 07:53:38;;;;;;;41.83;26.90;;;;;;;2.98;76.98;95883.41;5058367;28;20177;-75
2021/03/10 07:56:03;;;;;;;47.77;28.47;;;;;;;3.08;76.95;95887.06;5060310;28;20205;-74
2021/03/10 07:58:30;;;;;;;47.47;28.03;;;;;;;3.15;76.59;95879.81;5062429;28;20189;-74
2021/03/10 08:00:56;;;;;;;47.77;29.20;;;;;;;3.10;76.57;95880.13;5050519;28;20916;-75
2021/03/10 08:03:29;;;;;;;48.80;30.03;;;;;;;3.24;76.30;95886.13;5069481;28;20177;-75
2021/03/10 08:06:05;;;;;;;47.77;28.17;;;;;;;3.38;75.99;95886.09;5072789;28;20318;-74
2021/03/10 08:08:38;;;;;;;47.43;29.63;;;;;;;3.38;75.75;95888.66;5074382;28;20212;-73
2021/03/10 08:11:18;;;;;;;45.97;28.80;;;;;;;3.39;75.20;95880.88;5074468;28;20192;-74
2021/03/10 08:13:57;;;;;;;49.33;28.13;;;;;;;3.47;75.21;95888.09;5072928;28;20187;-75
2021/03/10 08:16:22;;;;;;;47.20;29.47;;;;;;;3.59;75.01;95881.34;5055711;28;20564;-74
2021/03/10 08:18:48;;;;;;;50.27;31.03;;;;;;;3.56;74.75;95882.38;5074109;28;20183;-74
2021/03/10 08:21:19;;;;;;;51.10;30.17;;;;;;;3.69;74.03;95869.56;5074297;28;20672;-75
2021/03/10 08:23:44;;;;;;;46.87;29.57;;;;;;;3.91;74.06;95879.31;5074507;28;20241;-74
2021/03/10 08:26:10;;;;;;;51.40;29.63;;;;;;;4.06;73.57;95877.47;5073967;28;20176;-75
2021/03/10 08:28:40;;;;;;;44.33;28.83;;;;;;;4.15;72.73;95882.88;5061798;28;20199;-74
2021/03/10 08:31:07;;;;;;;51.10;29.90;;;;;;;4.22;71.74;95881.53;5054241;28;20194;-74
2021/03/10 08:33:45;;;;;;;49.90;30.10;;;;;;;4.26;71.60;95884.72;5054218;28;20664;-74
2021/03/10 08:36:10;;;;;;;43.67;28.40;;;;;;;4.41;72.04;95877.72;5055049;28;20176;-74
2021/03/10 08:38:36;;;;;;;44.20;25.97;;;;;;;4.40;70.73;95886.38;5055104;28;20253;-75
2021/03/10 08:41:05;;;;;;;42.47;27.13;;;;;;;4.75;69.83;95887.41;5055096;28;20367;-74
2021/03/10 08:43:31;;;;;;;43.47;26.60;;;;;;;4.82;69.57;95878.34;5037503;28;20188;-74
2021/03/10 08:45:56;;;;;;;42.87;26.47;;;;;;;4.96;69.37;95879.19;5037197;28;20625;-75
2021/03/10 08:48:22;;;;;;;42.43;27.10;;;;;;;5.16;68.89;95878.63;5037103;28;20181;-74
2021/03/10 08:50:48;;;;;;;45.03;27.60;;;;;;;5.19;68.66;95877.56;5060571;28;20197;-74
2021/03/10 08:53:14;;;;;;;42.87;27.00;;;;;;;5.43;68.16;95885.34;5073441;28;20199;-74
2021/03/10 08:55:44;;;;;;;41.60;25.50;;;;;;;5.30;67.64;95888.78;5073318;28;20552;-74
2021/03/10 08:58:14;;;;;;;38.77;24.77;;;;;;;5.23;66.12;95890.13;5073487;28;20233;-74
2021/03/10 09:00:41;;;;;;;40.63;23.97;;;;;;;5.30;66.18;95888.78;5062277;28;20208;-74
2021/03/10 09:03:13;;;;;;;39.23;24.60;;;;;;;5.27;65.55;95893.31;5062176;28;20299;-74
2021/03/10 09:05:39;;;;;;;36.33;24.77;;;;;;;5.28;65.64;95889.81;5072171;28;20177;-74
2021/03/10 09:08:07;;;;;;;35.43;22.87;;;;;;;5.32;66.02;95892.06;5061897;28;20311;-75
2021/03/10 09:10:33;;;;;;;36.77;23.27;;;;;;;5.15;65.53;95889.84;5067062;28;20318;-74
2021/03/10 09:12:59;;;;;;;37.17;23.33;;;;;;;5.32;65.41;95888.69;5062170;28;20641;-74
2021/03/10 09:15:25;;;;;;;32.93;22.13;;;;;;;5.34;64.95;95885.06;5071829;28;20268;-74
2021/03/10 09:17:51;;;;;;;35.63;21.33;;;;;;;5.37;64.53;95900.28;5066779;28;20205;-74
2021/03/10 09:20:23;;;;;;;34.00;22.30;;;;;;;5.33;64.55;95895.47;5067598;28;20287;-74
2021/03/10 09:22:48;;;;;;;39.07;22.07;;;;;;;5.69;63.69;95898.03;5054645;28;20193;-73
2021/03/10 09:25:15;;;;;;;32.57;21.23;;;;;;;5.81;63.10;95890.34;5059177;28;20189;-74
2021/03/10 09:27:40;;;;;;;33.40;20.77;;;;;;;5.61;63.08;95887.44;5056929;28;20640;-73
2021/03/10 09:30:31;;;;;;;31.90;20.87;;;;;;;5.92;63.06;95888.69;5056947;28;20216;-74
2021/03/10 09:32:57;;;;;;;33.13;21.47;;;;;;;5.93;62.64;95869.72;5066663;28;20278;-75
2021/03/10 09:35:27;;;;;;;28.57;18.03;;;;;;;6.15;62.24;95881.03;5040820;28;20244;-74
2021/03/10 09:37:55;;;;;;;31.00;19.87;;;;;;;6.09;60.89;95884.03;5064261;28;20272;-75
2021/03/10 09:40:35;;;;;;;27.57;18.50;;;;;;;6.23;59.82;95889.03;5062747;28;20205;-74
2021/03/10 09:43:03;;;;;;;26.47;17.93;;;;;;;6.40;59.19;95891.19;5064688;28;20555;-74
2021/03/10 09:45:31;;;;;;;28.70;18.73;;;;;;;6.49;56.67;95880.19;5060399;28;20272;-74
2021/03/10 09:47:56;;;;;;;26.47;18.43;;;;;;;6.24;55.37;95880.34;5070817;28;20645;-74
2021/03/10 09:50:28;;;;;;;17.60;12.20;;;;;;;6.29;54.86;95888.56;5064303;28;20204;-75
2021/03/10 09:52:54;;;;;;;19.17;11.93;;;;;;;5.94;56.58;95873.09;5081017;28;20627;-74
2021/03/10 09:55:21;;;;;;;18.67;12.67;;;;;;;6.25;54.54;95874.25;5066255;28;20272;-74
2021/03/10 09:57:46;;;;;;;19.03;12.30;;;;;;;6.42;53.93;95868.66;5057965;28;20186;-73
2021/03/10 10:00:20;;;;;;;21.93;15.20;;;;;;;6.23;54.47;95864.06;5065905;28;20204;-73
2021/03/10 10:02:46;;;;;;;18.90;14.63;;;;;;;6.45;54.20;95868.47;5062485;28;20193;-74
2021/03/10 10:05:23;;;;;;;21.53;14.53;;;;;;;6.71;53.92;95871.63;5049890;28;20204;-74
2021/03/10 10:07:49;;;;;;;21.20;15.23;;;;;;;6.84;53.66;95862.97;5055495;28;20184;-74
2021/03/10 10:10:14;;;;;;;17.40;11.33;;;;;;;6.67;52.32;95874.56;5061436;28;20205;-74
2021/03/10 10:12:47;;;;;;;17.87;12.70;;;;;;;6.82;52.13;95873.41;5061878;28;20237;-74
2021/03/10 10:15:15;;;;;;;29.43;21.57;;;;;;;6.96;52.88;95877.50;5063821;28;20228;-74
2021/03/10 10:17:46;;;;;;;18.07;12.13;;;;;;;7.10;52.42;95867.78;5050357;28;20619;-74
2021/03/10 10:20:12;;;;;;;11.50;9.07;;;;;;;6.93;50.25;95875.19;5067373;28;20606;-73
2021/03/10 10:22:38;;;;;;;13.97;8.60;;;;;;;7.14;50.30;95875.28;5064702;28;20251;-73
2021/03/10 10:25:04;;;;;;;10.70;7.47;;;;;;;6.88;49.18;95872.94;5058242;28;20190;-76
2021/03/10 10:27:30;;;;;;;10.80;8.30;;;;;;;6.66;50.27;95878.09;5070430;28;20594;-74
2021/03/10 10:29:55;;;;;;;9.40;6.13;;;;;;;6.51;49.25;95874.91;5068206;28;20282;-74
2021/03/10 10:32:20;;;;;;;10.63;7.90;;;;;;;6.59;48.61;95867.41;5070137;28;20272;-74
2021/03/10 10:34:46;;;;;;;9.83;7.20;;;;;;;6.62;49.82;95869.75;5067537;28;21846;-74
2021/03/10 10:37:11;;;;;;;13.40;8.73;;;;;;;6.69;48.94;95870.94;5065144;28;20193;-74
2021/03/10 10:39:37;;;;;;;11.30;6.73;;;;;;;6.76;48.21;95871.28;5069414;28;20279;-74
2021/03/10 10:42:02;;;;;;;8.93;6.47;;;;;;;6.82;49.31;95871.66;5063847;28;20209;-74
2021/03/10 10:44:27;;;;;;;7.93;5.10;;;;;;;6.99;47.23;95866.97;5062675;28;20229;-73
2021/03/10 10:46:52;;;;;;;7.23;5.57;;;;;;;6.91;46.02;95879.66;5060670;28;20193;-74
2021/03/10 10:49:18;;;;;;;8.70;6.50;;;;;;;6.63;46.91;95868.84;5057709;28;20618;-74
2021/03/10 10:51:44;;;;;;;8.43;5.93;;;;;;;7.06;47.11;95873.28;5061727;28;20208;-74
2021/03/10 10:54:11;;;;;;;7.83;6.40;;;;;;;7.10;47.60;95872.13;5056882;28;20247;-73
2021/03/10 10:56:36;;;;;;;9.57;6.63;;;;;;;7.02;48.81;95872.72;5063671;28;20177;-74
2021/03/10 10:59:02;;;;;;;10.87;7.30;;;;;;;7.23;48.75;95877.97;5063862;28;20200;-74
2021/03/10 11:01:27;;;;;;;11.90;8.00;;;;;;;7.41;48.04;95875.72;5064227;28;20209;-74
2021/03/10 11:03:52;;;;;;;37.13;23.23;;;;;;;7.06;47.54;95868.94;5073556;28;20565;-74
2021/03/10 11:06:17;;;;;;;50.93;34.97;;;;;;;7.18;46.02;95867.19;5062846;28;20666;-73
2021/03/10 11:08:43;;;;;;;10.27;7.83;;;;;;;7.04;46.50;95862.25;5053154;28;20217;-74
2021/03/10 11:11:08;;;;;;;12.43;8.80;;;;;;;7.18;45.62;95866.38;5060704;28;20206;-74
2021/03/10 11:13:33;;;;;;;10.20;7.43;;;;;;;7.10;45.44;95864.38;5069167;28;20185;-73
2021/03/10 11:15:59;;;;;;;14.43;10.63;;;;;;;7.15;46.54;95858.84;5064928;28;20177;-73
2021/03/10 11:18:24;;;;;;;10.93;7.77;;;;;;;7.10;47.79;95862.63;5063504;28;20182;-74
2021/03/10 11:20:49;;;;;;;8.70;6.17;;;;;;;7.31;46.95;95854.13;5056633;28;20608;-73
2021/03/10 11:23:15;;;;;;;8.43;5.97;;;;;;;7.22;46.96;95857.44;5068691;28;20181;-74
2021/03/10 11:25:40;;;;;;;5.77;4.47;;;;;;;7.31;45.97;95852.38;5067383;28;20604;-73
2021/03/10 11:28:05;;;;;;;8.57;7.43;;;;;;;7.45;46.10;95855.66;5057521;28;20192;-73